Time,TemperatureF,DewpointF,PressureIn,WindDirection,WindDirectionDegrees,WindSpeedMPH,WindSpeedGustMPH,Humidity,HourlyPrecipIn,Conditions,Clouds,dailyrainin,SolarRadiationWatts/m^2,SoftwareType,DateUTC
2013-01-06 14:12:00,20.0,0.0,-100.00,SE,141,3.0,6.0,41,0.00,,,0.00,510.000000,,2013-01-06 21:12:00,
2013-01-06 14:33:00,25.0,2.0,-100.00,SE,125,2.0,5.0,37,0.00,,,0.00,467.000000,,2013-01-06 21:33:00,
2013-01-06 14:43:00,25.0,2.0,-100.00,SE,125,2.0,5.0,37,0.00,,,0.00,467.000000,,2013-01-06 21:43:00,
2013-01-06 14:53:00,25.0,2.0,-100.00,SE,125,2.0,5.0,37,0.00,,,0.00,467.000000,,2013-01-06 21:53:00,
2013-01-06 15:02:00,25.0,2.0,-100.00,SE,125,2.0,5.0,37,0.00,,,0.00,467.000000,,2013-01-06 22:02:00,
2013-01-06 15:12:00,25.0,2.0,-100.00,SE,125,2.0,5.0,37,0.00,,,0.00,467.000000,,2013-01-06 22:12:00,
2013-01-06 15:33:00,21.0,2.0,-100.00,SSE,148,1.0,5.0,43,0.00,,,0.00,273.000000,,2013-01-06 22:33:00,
2013-01-06 15:43:00,21.0,2.0,-100.00,SSE,148,1.0,5.0,43,0.00,,,0.00,273.000000,,2013-01-06 22:43:00,
2013-01-06 15:53:00,21.0,2.0,-100.00,SSE,148,1.0,5.0,43,0.00,,,0.00,273.000000,,2013-01-06 22:53:00,
2013-01-06 16:02:00,21.0,2.0,-100.00,SSE,148,1.0,5.0,43,0.00,,,0.00,273.000000,,2013-01-06 23:02:00,
2013-01-06 16:12:00,21.0,2.0,-100.00,SSE,148,1.0,5.0,43,0.00,,,0.00,273.000000,,2013-01-06 23:12:00,
2013-01-06 16:33:00,18.0,1.0,-100.00,SE,130,1.0,2.0,47,0.00,,,0.00,116.000000,,2013-01-06 23:33:00,
2013-01-06 16:43:00,18.0,1.0,-100.00,SE,130,1.0,2.0,47,0.00,,,0.00,116.000000,,2013-01-06 23:43:00,
2013-01-06 16:53:00,18.0,1.0,-100.00,SE,130,1.0,2.0,47,0.00,,,0.00,116.000000,,2013-01-06 23:53:00,
2013-01-06 17:02:00,18.0,1.0,-100.00,SE,130,1.0,2.0,47,0.00,,,0.00,116.000000,,2013-01-07 00:02:00,
2013-01-06 17:12:00,18.0,1.0,-100.00,SE,130,1.0,2.0,47,0.00,,,0.00,116.000000,,2013-01-07 00:12:00,
2013-01-06 17:33:00,14.0,0.0,-100.00,East,97,0.0,3.0,54,0.00,,,0.00,18.000000,,2013-01-07 00:33:00,
2013-01-06 17:43:00,14.0,0.0,-100.00,East,97,0.0,3.0,54,0.00,,,0.00,18.000000,,2013-01-07 00:43:00,
2013-01-06 17:53:00,14.0,0.0,-100.00,East,97,0.0,3.0,54,0.00,,,0.00,18.000000,,2013-01-07 00:53:00,
2013-01-06 18:02:00,14.0,0.0,-100.00,East,97,0.0,3.0,54,0.00,,,0.00,18.000000,,2013-01-07 01:02:00,
2013-01-06 18:12:00,14.0,0.0,-100.00,East,97,0.0,3.0,54,0.00,,,0.00,18.000000,,2013-01-07 01:12:00,
2013-01-06 18:43:00,14.0,1.0,-100.00,North,349,3.0,3.0,55,0.00,,,0.00,0.000000,,2013-01-07 01:43:00,
2013-01-06 18:53:00,14.0,1.0,-100.00,North,349,3.0,3.0,55,0.00,,,0.00,0.000000,,2013-01-07 01:53:00,
2013-01-06 19:02:00,14.0,1.0,-100.00,North,349,3.0,3.0,55,0.00,,,0.00,0.000000,,2013-01-07 02:02:00,
2013-01-06 19:12:00,14.0,1.0,-100.00,North,349,3.0,3.0,55,0.00,,,0.00,0.000000,,2013-01-07 02:12:00,
2013-01-06 19:32:00,14.0,0.0,-100.00,NW,306,1.0,4.0,54,0.00,,,0.00,0.000000,,2013-01-07 02:32:00,
2013-01-06 19:43:00,14.0,0.0,-100.00,NW,306,1.0,4.0,54,0.00,,,0.00,0.000000,,2013-01-07 02:43:00,
2013-01-06 19:53:00,14.0,0.0,-100.00,NW,306,1.0,4.0,54,0.00,,,0.00,0.000000,,2013-01-07 02:53:00,
2013-01-06 20:02:00,14.0,0.0,-100.00,NW,306,1.0,4.0,54,0.00,,,0.00,0.000000,,2013-01-07 03:02:00,
2013-01-06 20:12:00,14.0,0.0,-100.00,NW,306,1.0,4.0,54,0.00,,,0.00,0.000000,,2013-01-07 03:12:00,
2013-01-06 20:33:00,13.0,0.0,-100.00,SSE,167,0.0,3.0,55,0.00,,,0.00,0.000000,,2013-01-07 03:33:00,
2013-01-06 20:43:00,13.0,0.0,-100.00,SSE,167,0.0,3.0,55,0.00,,,0.00,0.000000,,2013-01-07 03:43:00,
2013-01-06 20:53:00,13.0,0.0,-100.00,SSE,167,0.0,3.0,55,0.00,,,0.00,0.000000,,2013-01-07 03:53:00,
2013-01-06 21:02:00,13.0,0.0,-100.00,SSE,167,0.0,3.0,55,0.00,,,0.00,0.000000,,2013-01-07 04:02:00,
2013-01-06 21:12:00,13.0,0.0,-100.00,SSE,167,0.0,3.0,55,0.00,,,0.00,0.000000,,2013-01-07 04:12:00,
2013-01-06 21:33:00,11.0,0.0,-100.00,North,357,4.0,6.0,59,0.00,,,0.00,0.000000,,2013-01-07 04:33:00,
2013-01-06 21:42:00,11.0,0.0,-100.00,North,357,4.0,6.0,59,0.00,,,0.00,0.000000,,2013-01-07 04:42:00,
2013-01-06 21:52:00,11.0,0.0,-100.00,North,357,4.0,6.0,59,0.00,,,0.00,0.000000,,2013-01-07 04:52:00,
2013-01-06 22:03:00,11.0,0.0,-100.00,North,357,4.0,6.0,59,0.00,,,0.00,0.000000,,2013-01-07 05:03:00,
2013-01-06 22:12:00,11.0,0.0,-100.00,North,357,4.0,6.0,59,0.00,,,0.00,0.000000,,2013-01-07 05:12:00,
2013-01-06 22:33:00,11.0,0.0,-100.00,SE,141,0.0,6.0,61,0.00,,,0.00,0.000000,,2013-01-07 05:33:00,
2013-01-06 22:43:00,11.0,0.0,-100.00,SE,141,0.0,6.0,61,0.00,,,0.00,0.000000,,2013-01-07 05:43:00,
2013-01-06 22:53:00,11.0,0.0,-100.00,SE,141,0.0,6.0,61,0.00,,,0.00,0.000000,,2013-01-07 05:53:00,
2013-01-06 23:02:00,11.0,0.0,-100.00,SE,141,0.0,6.0,61,0.00,,,0.00,0.000000,,2013-01-07 06:02:00,
2013-01-06 23:12:00,11.0,0.0,-100.00,SE,141,0.0,6.0,61,0.00,,,0.00,0.000000,,2013-01-07 06:12:00,
2013-01-06 23:42:00,10.0,0.0,-100.00,North,6,2.0,3.0,63,0.00,,,0.00,0.000000,,2013-01-07 06:42:00,
2013-01-06 23:52:00,10.0,0.0,-100.00,North,6,2.0,3.0,63,0.00,,,0.00,0.000000,,2013-01-07 06:52:00,